sensor_id;sensor_type;location;lat;lon;timestamp;pressure;altitude;pressure_sealevel;temperature;humidity
61345;BME280;47216;42.656;23.232;2022-11-15T00:00:28;94470.16;;;3.36;76.99
61345;BME280;47216;42.656;23.232;2022-11-15T00:02:55;94477.28;;;3.34;77.69
61345;BME280;47216;42.656;23.232;2022-11-15T00:05:22;94475.75;;;3.40;77.46
61345;BME280;47216;42.656;23.232;2022-11-15T00:07:49;94480.06;;;3.33;77.10
61345;BME280;47216;42.656;23.232;2022-11-15T00:10:16;94474.47;;;3.29;77.14
61345;BME280;47216;42.656;23.232;2022-11-15T00:12:44;94476.44;;;3.27;77.10
61345;BME280;47216;42.656;23.232;2022-11-15T00:15:10;94470.44;;;3.20;76.62
61345;BME280;47216;42.656;23.232;2022-11-15T00:17:37;94468.28;;;3.24;76.69
61345;BME280;47216;42.656;23.232;2022-11-15T00:20:05;94470.56;;;3.12;78.03
61345;BME280;47216;42.656;23.232;2022-11-15T00:22:32;94468.66;;;2.99;78.40
61345;BME280;47216;42.656;23.232;2022-11-15T00:25:00;94469.03;;;2.96;79.16
61345;BME280;47216;42.656;23.232;2022-11-15T00:27:27;94458.78;;;2.81;79.75
61345;BME280;47216;42.656;23.232;2022-11-15T00:29:55;94457.31;;;2.72;80.25
61345;BME280;47216;42.656;23.232;2022-11-15T00:32:21;94458.56;;;2.76;80.07
61345;BME280;47216;42.656;23.232;2022-11-15T00:34:48;94455.34;;;2.74;79.75
61345;BME280;47216;42.656;23.232;2022-11-15T00:37:15;94461.75;;;2.78;79.90
61345;BME280;47216;42.656;23.232;2022-11-15T00:39:42;94464.06;;;2.73;79.72
61345;BME280;47216;42.656;23.232;2022-11-15T00:42:09;94464.94;;;2.80;79.79
61345;BME280;47216;42.656;23.232;2022-11-15T00:44:35;94450.97;;;2.89;79.33
61345;BME280;47216;42.656;23.232;2022-11-15T00:47:03;94447.94;;;2.86;79.55
61345;BME280;47216;42.656;23.232;2022-11-15T00:49:30;94447.53;;;2.82;79.52
61345;BME280;47216;42.656;23.232;2022-11-15T00:51:57;94447.53;;;2.82;79.26
61345;BME280;47216;42.656;23.232;2022-11-15T00:54:24;94444.44;;;2.72;78.73
61345;BME280;47216;42.656;23.232;2022-11-15T00:56:51;94449.53;;;2.65;79.79
61345;BME280;47216;42.656;23.232;2022-11-15T00:59:17;94450.06;;;2.61;80.56
61345;BME280;47216;42.656;23.232;2022-11-15T01:01:44;94443.22;;;2.68;80.49
61345;BME280;47216;42.656;23.232;2022-11-15T01:04:13;94442.66;;;2.72;80.37
61345;BME280;47216;42.656;23.232;2022-11-15T01:06:40;94435.84;;;2.86;79.99
61345;BME280;47216;42.656;23.232;2022-11-15T01:09:07;94436.47;;;2.88;80.51
61345;BME280;47216;42.656;23.232;2022-11-15T01:11:33;94443.78;;;2.85;79.38
61345;BME280;47216;42.656;23.232;2022-11-15T01:14:00;94444.63;;;2.92;79.18
61345;BME280;47216;42.656;23.232;2022-11-15T01:16:27;94447.75;;;2.87;78.24
61345;BME280;47216;42.656;23.232;2022-11-15T01:18:54;94445.31;;;2.79;78.56
61345;BME280;47216;42.656;23.232;2022-11-15T01:21:22;94446.16;;;2.65;79.30
61345;BME280;47216;42.656;23.232;2022-11-15T01:23:52;94440.59;;;2.61;79.39
61345;BME280;47216;42.656;23.232;2022-11-15T01:26:19;94441.25;;;2.70;80.38
61345;BME280;47216;42.656;23.232;2022-11-15T01:28:46;94433.91;;;2.67;80.30
61345;BME280;47216;42.656;23.232;2022-11-15T01:31:14;94439.44;;;2.64;80.62
61345;BME280;47216;42.656;23.232;2022-11-15T01:33:42;94431.81;;;2.56;81.12
61345;BME280;47216;42.656;23.232;2022-11-15T01:36:12;94433.28;;;2.43;82.47
61345;BME280;47216;42.656;23.232;2022-11-15T01:38:40;94431.34;;;2.45;82.24
61345;BME280;47216;42.656;23.232;2022-11-15T01:41:14;94431.94;;;2.47;82.30
61345;BME280;47216;42.656;23.232;2022-11-15T01:43:41;94426.25;;;2.52;81.19
61345;BME280;47216;42.656;23.232;2022-11-15T01:46:21;94431.72;;;2.64;81.73
61345;BME280;47216;42.656;23.232;2022-11-15T01:48:50;94429.13;;;2.64;80.75
61345;BME280;47216;42.656;23.232;2022-11-15T01:51:20;94429.94;;;2.64;80.39
61345;BME280;47216;42.656;23.232;2022-11-15T01:53:52;94432.75;;;2.69;80.24
61345;BME280;47216;42.656;23.232;2022-11-15T01:56:23;94429.78;;;2.72;79.54
61345;BME280;47216;42.656;23.232;2022-11-15T01:58:52;94425.19;;;2.68;78.77
61345;BME280;47216;42.656;23.232;2022-11-15T02:01:19;94430.16;;;2.69;78.70
61345;BME280;47216;42.656;23.232;2022-11-15T02:03:49;94421.41;;;2.64;79.52
61345;BME280;47216;42.656;23.232;2022-11-15T02:06:18;94420.03;;;2.68;79.36
61345;BME280;47216;42.656;23.232;2022-11-15T02:08:45;94427.59;;;2.69;79.84
61345;BME280;47216;42.656;23.232;2022-11-15T02:11:13;94429.22;;;2.77;80.25
61345;BME280;47216;42.656;23.232;2022-11-15T02:13:40;94422.50;;;2.76;79.65
61345;BME280;47216;42.656;23.232;2022-11-15T02:16:13;94417.72;;;2.73;80.36
61345;BME280;47216;42.656;23.232;2022-11-15T02:18:48;94420.53;;;2.78;80.05
61345;BME280;47216;42.656;23.232;2022-11-15T02:21:22;94422.97;;;2.86;80.15
61345;BME280;47216;42.656;23.232;2022-11-15T02:24:20;94413.91;;;2.90;79.50
61345;BME280;47216;42.656;23.232;2022-11-15T02:27:17;94412.00;;;2.99;79.25
61345;BME280;47216;42.656;23.232;2022-11-15T02:30:20;94409.09;;;3.09;79.62
61345;BME280;47216;42.656;23.232;2022-11-15T02:32:50;94403.81;;;3.17;78.99
61345;BME280;47216;42.656;23.232;2022-11-15T02:35:27;94406.63;;;3.22;78.25
61345;BME280;47216;42.656;23.232;2022-11-15T02:37:58;94404.66;;;3.24;77.66
61345;BME280;47216;42.656;23.232;2022-11-15T02:40:35;94401.88;;;3.26;77.59
61345;BME280;47216;42.656;23.232;2022-11-15T02:43:09;94408.19;;;3.23;77.38
61345;BME280;47216;42.656;23.232;2022-11-15T02:46:00;94411.03;;;3.28;76.25
61345;BME280;47216;42.656;23.232;2022-11-15T02:48:30;94409.03;;;3.24;76.23
61345;BME280;47216;42.656;23.232;2022-11-15T02:50:58;94407.13;;;3.11;77.00
61345;BME280;47216;42.656;23.232;2022-11-15T02:53:26;94406.28;;;3.04;76.91
61345;BME280;47216;42.656;23.232;2022-11-15T02:55:54;94403.66;;;2.97;77.38
61345;BME280;47216;42.656;23.232;2022-11-15T02:58:52;94409.97;;;2.94;77.63
61345;BME280;47216;42.656;23.232;2022-11-15T03:01:35;94413.78;;;2.99;77.52
61345;BME280;47216;42.656;23.232;2022-11-15T03:04:14;94414.13;;;3.17;76.90
61345;BME280;47216;42.656;23.232;2022-11-15T03:06:49;94419.34;;;3.30;76.33
61345;BME280;47216;42.656;23.232;2022-11-15T03:09:27;94415.41;;;3.34;75.62
61345;BME280;47216;42.656;23.232;2022-11-15T03:11:59;94415.00;;;3.31;76.44
61345;BME280;47216;42.656;23.232;2022-11-15T03:14:33;94406.19;;;3.19;76.22
61345;BME280;47216;42.656;23.232;2022-11-15T03:17:08;94405.91;;;3.07;75.35
61345;BME280;47216;42.656;23.232;2022-11-15T03:19:43;94402.72;;;3.05;75.35
61345;BME280;47216;42.656;23.232;2022-11-15T03:22:14;94406.06;;;2.99;75.73
61345;BME280;47216;42.656;23.232;2022-11-15T03:24:43;94404.38;;;2.91;76.64
61345;BME280;47216;42.656;23.232;2022-11-15T03:27:14;94411.53;;;2.89;76.02
61345;BME280;47216;42.656;23.232;2022-11-15T03:29:45;94403.38;;;2.85;75.81
61345;BME280;47216;42.656;23.232;2022-11-15T03:32:19;94398.78;;;2.81;76.04
61345;BME280;47216;42.656;23.232;2022-11-15T03:34:50;94399.78;;;2.80;76.89
61345;BME280;47216;42.656;23.232;2022-11-15T03:37:20;94394.56;;;2.73;77.04
61345;BME280;47216;42.656;23.232;2022-11-15T03:39:48;94389.41;;;2.73;76.62
61345;BME280;47216;42.656;23.232;2022-11-15T03:42:21;94392.59;;;2.75;76.15
61345;BME280;47216;42.656;23.232;2022-11-15T03:44:53;94390.38;;;2.72;76.29
61345;BME280;47216;42.656;23.232;2022-11-15T03:47:27;94393.88;;;2.64;76.83
61345;BME280;47216;42.656;23.232;2022-11-15T03:49:58;94385.72;;;2.61;76.81
61345;BME280;47216;42.656;23.232;2022-11-15T03:52:31;94380.34;;;2.56;77.08
61345;BME280;47216;42.656;23.232;2022-11-15T03:55:01;94383.53;;;2.58;76.90
61345;BME280;47216;42.656;23.232;2022-11-15T03:57:28;94377.03;;;2.62;77.50
61345;BME280;47216;42.656;23.232;2022-11-15T03:59:55;94379.72;;;2.53;76.88
61345;BME280;47216;42.656;23.232;2022-11-15T04:02:24;94366.00;;;2.46;77.70
61345;BME280;47216;42.656;23.232;2022-11-15T04:04:51;94372.69;;;2.41;79.10
61345;BME280;47216;42.656;23.232;2022-11-15T04:07:17;94368.72;;;2.38;79.31
61345;BME280;47216;42.656;23.232;2022-11-15T04:09:44;94373.78;;;2.31;79.89
61345;BME280;47216;42.656;23.232;2022-11-15T04:12:29;94371.75;;;2.27;79.95
61345;BME280;47216;42.656;23.232;2022-11-15T04:15:00;94369.44;;;2.32;79.67
61345;BME280;47216;42.656;23.232;2022-11-15T04:17:39;94364.09;;;2.34;80.30
61345;BME280;47216;42.656;23.232;2022-11-15T04:20:10;94374.34;;;2.48;79.66
61345;BME280;47216;42.656;23.232;2022-11-15T04:22:55;94367.34;;;2.64;78.87
61345;BME280;47216;42.656;23.232;2022-11-15T04:25:41;94372.50;;;2.64;78.05
61345;BME280;47216;42.656;23.232;2022-11-15T04:28:08;94367.44;;;2.77;78.46
61345;BME280;47216;42.656;23.232;2022-11-15T04:30:35;94359.22;;;2.88;77.29
61345;BME280;47216;42.656;23.232;2022-11-15T04:33:03;94361.88;;;3.02;77.27
61345;BME280;47216;42.656;23.232;2022-11-15T04:35:30;94371.63;;;3.06;76.32
61345;BME280;47216;42.656;23.232;2022-11-15T04:37:58;94359.78;;;3.12;76.34
61345;BME280;47216;42.656;23.232;2022-11-15T04:40:24;94358.19;;;3.11;75.41
61345;BME280;47216;42.656;23.232;2022-11-15T04:42:50;94362.50;;;3.04;75.61
61345;BME280;47216;42.656;23.232;2022-11-15T04:45:18;94361.50;;;3.05;74.68
61345;BME280;47216;42.656;23.232;2022-11-15T04:47:45;94361.50;;;3.05;75.44
61345;BME280;47216;42.656;23.232;2022-11-15T04:50:14;94366.41;;;3.00;74.83
61345;BME280;47216;42.656;23.232;2022-11-15T04:52:42;94372.34;;;2.93;74.48
61345;BME280;47216;42.656;23.232;2022-11-15T04:55:10;94363.22;;;2.98;75.14
61345;BME280;47216;42.656;23.232;2022-11-15T04:57:37;94367.59;;;2.97;74.73
61345;BME280;47216;42.656;23.232;2022-11-15T05:00:06;94369.22;;;2.98;75.06
61345;BME280;47216;42.656;23.232;2022-11-15T05:02:33;94371.56;;;3.00;75.25
61345;BME280;47216;42.656;23.232;2022-11-15T05:05:19;94369.09;;;2.85;75.05
61345;BME280;47216;42.656;23.232;2022-11-15T05:07:46;94371.00;;;2.76;75.02
61345;BME280;47216;42.656;23.232;2022-11-15T05:10:13;94378.50;;;2.71;75.74
61345;BME280;47216;42.656;23.232;2022-11-15T05:12:40;94370.53;;;2.66;75.64
61345;BME280;47216;42.656;23.232;2022-11-15T05:15:08;94370.53;;;2.66;76.26
61345;BME280;47216;42.656;23.232;2022-11-15T05:17:35;94376.41;;;2.60;76.46
61345;BME280;47216;42.656;23.232;2022-11-15T05:20:02;94368.53;;;2.61;75.88
61345;BME280;47216;42.656;23.232;2022-11-15T05:22:30;94369.31;;;2.62;76.96
61345;BME280;47216;42.656;23.232;2022-11-15T05:24:57;94364.50;;;2.59;76.38
61345;BME280;47216;42.656;23.232;2022-11-15T05:27:24;94367.69;;;2.61;77.03
61345;BME280;47216;42.656;23.232;2022-11-15T05:29:53;94359.81;;;2.62;77.28
61345;BME280;47216;42.656;23.232;2022-11-15T05:32:20;94363.16;;;2.63;77.97
61345;BME280;47216;42.656;23.232;2022-11-15T05:34:47;94355.44;;;2.63;77.31
61345;BME280;47216;42.656;23.232;2022-11-15T05:37:14;94364.50;;;2.59;78.60
61345;BME280;47216;42.656;23.232;2022-11-15T05:39:43;94364.34;;;2.60;78.49
61345;BME280;47216;42.656;23.232;2022-11-15T05:42:11;94368.13;;;2.64;79.12
61345;BME280;47216;42.656;23.232;2022-11-15T05:44:41;94357.22;;;2.62;78.73
61345;BME280;47216;42.656;23.232;2022-11-15T05:47:12;94358.00;;;2.63;78.92
61345;BME280;47216;42.656;23.232;2022-11-15T05:49:42;94361.69;;;2.53;79.34
61345;BME280;47216;42.656;23.232;2022-11-15T05:52:12;94371.88;;;2.40;80.40
61345;BME280;47216;42.656;23.232;2022-11-15T05:54:40;94378.00;;;2.39;81.60
61345;BME280;47216;42.656;23.232;2022-11-15T05:57:08;94373.88;;;2.45;81.79
61345;BME280;47216;42.656;23.232;2022-11-15T05:59:36;94377.91;;;2.47;81.69
61345;BME280;47216;42.656;23.232;2022-11-15T06:02:02;94373.59;;;2.55;81.48
61345;BME280;47216;42.656;23.232;2022-11-15T06:04:29;94379.84;;;2.67;81.75
61345;BME280;47216;42.656;23.232;2022-11-15T06:06:58;94384.44;;;2.71;81.74
61345;BME280;47216;42.656;23.232;2022-11-15T06:09:25;94370.28;;;2.82;82.37
61345;BME280;47216;42.656;23.232;2022-11-15T06:11:52;94376.28;;;2.89;82.37
61345;BME280;47216;42.656;23.232;2022-11-15T06:14:20;94380.25;;;2.92;82.14
61345;BME280;47216;42.656;23.232;2022-11-15T06:16:47;94377.50;;;2.93;83.18
61345;BME280;47216;42.656;23.232;2022-11-15T06:19:14;94377.44;;;2.87;82.96
61345;BME280;47216;42.656;23.232;2022-11-15T06:21:40;94375.03;;;2.85;84.36
61345;BME280;47216;42.656;23.232;2022-11-15T06:24:09;94372.69;;;2.90;83.49
61345;BME280;47216;42.656;23.232;2022-11-15T06:26:35;94374.47;;;3.18;84.48
61345;BME280;47216;42.656;23.232;2022-11-15T06:29:03;94368.78;;;3.64;86.48
61345;BME280;47216;42.656;23.232;2022-11-15T06:31:31;94366.81;;;3.66;85.35
61345;BME280;47216;42.656;23.232;2022-11-15T06:33:58;94369.22;;;3.68;85.09
61345;BME280;47216;42.656;23.232;2022-11-15T06:36:25;94365.63;;;3.69;84.72
61345;BME280;47216;42.656;23.232;2022-11-15T06:38:51;94369.41;;;3.66;83.80
61345;BME280;47216;42.656;23.232;2022-11-15T06:41:19;94368.59;;;3.66;84.78
61345;BME280;47216;42.656;23.232;2022-11-15T06:43:47;94360.03;;;4.13;86.23
61345;BME280;47216;42.656;23.232;2022-11-15T06:46:13;94370.66;;;4.85;86.18
61345;BME280;47216;42.656;23.232;2022-11-15T06:48:42;94360.94;;;5.00;82.50
61345;BME280;47216;42.656;23.232;2022-11-15T06:51:08;94368.09;;;4.98;81.27
61345;BME280;47216;42.656;23.232;2022-11-15T06:53:35;94362.94;;;4.72;80.35
61345;BME280;47216;42.656;23.232;2022-11-15T06:56:04;94359.56;;;4.65;80.47
61345;BME280;47216;42.656;23.232;2022-11-15T06:58:31;94367.06;;;4.53;80.79
61345;BME280;47216;42.656;23.232;2022-11-15T07:00:59;94364.25;;;4.34;81.58
61345;BME280;47216;42.656;23.232;2022-11-15T07:03:26;94357.94;;;4.37;80.98
61345;BME280;47216;42.656;23.232;2022-11-15T07:05:55;94354.16;;;4.39;82.44
61345;BME280;47216;42.656;23.232;2022-11-15T07:08:23;94348.38;;;4.31;82.89
61345;BME280;47216;42.656;23.232;2022-11-15T07:10:50;94361.50;;;4.49;82.47
61345;BME280;47216;42.656;23.232;2022-11-15T07:13:17;94357.75;;;4.65;82.45
61345;BME280;47216;42.656;23.232;2022-11-15T07:15:44;94352.38;;;4.80;82.46
61345;BME280;47216;42.656;23.232;2022-11-15T07:18:10;94351.00;;;4.84;82.45
61345;BME280;47216;42.656;23.232;2022-11-15T07:20:37;94355.56;;;4.95;82.24
61345;BME280;47216;42.656;23.232;2022-11-15T07:23:07;94358.53;;;5.05;81.55
61345;BME280;47216;42.656;23.232;2022-11-15T07:25:34;94363.50;;;5.14;81.26
61345;BME280;47216;42.656;23.232;2022-11-15T07:28:01;94365.88;;;5.22;81.26
61345;BME280;47216;42.656;23.232;2022-11-15T07:30:28;94363.69;;;5.25;81.20
61345;BME280;47216;42.656;23.232;2022-11-15T07:32:56;94359.50;;;5.31;80.73
61345;BME280;47216;42.656;23.232;2022-11-15T07:35:23;94368.88;;;5.32;81.05
61345;BME280;47216;42.656;23.232;2022-11-15T07:37:54;94364.06;;;5.42;80.76
61345;BME280;47216;42.656;23.232;2022-11-15T07:40:23;94361.88;;;5.39;80.67
61345;BME280;47216;42.656;23.232;2022-11-15T07:42:50;94352.31;;;5.46;80.55
61345;BME280;47216;42.656;23.232;2022-11-15T07:45:21;94366.06;;;5.34;79.87
61345;BME280;47216;42.656;23.232;2022-11-15T07:47:49;94363.47;;;5.40;80.03
61345;BME280;47216;42.656;23.232;2022-11-15T07:50:16;94354.72;;;5.41;80.05
61345;BME280;47216;42.656;23.232;2022-11-15T07:52:44;94357.50;;;5.46;79.81
61345;BME280;47216;42.656;23.232;2022-11-15T07:55:11;94353.13;;;5.34;80.52
61345;BME280;47216;42.656;23.232;2022-11-15T07:57:39;94356.72;;;5.33;80.12
61345;BME280;47216;42.656;23.232;2022-11-15T08:00:07;94345.34;;;5.47;80.49
61345;BME280;47216;42.656;23.232;2022-11-15T08:02:34;94344.75;;;5.52;80.45
61345;BME280;47216;42.656;23.232;2022-11-15T08:05:01;94349.09;;;5.58;80.42
61345;BME280;47216;42.656;23.232;2022-11-15T08:07:29;94346.09;;;5.61;80.65
61345;BME280;47216;42.656;23.232;2022-11-15T08:09:56;94342.50;;;5.68;80.74
61345;BME280;47216;42.656;23.232;2022-11-15T08:12:23;94340.09;;;5.80;80.70
61345;BME280;47216;42.656;23.232;2022-11-15T08:14:52;94342.59;;;5.94;80.83
61345;BME280;47216;42.656;23.232;2022-11-15T08:17:18;94346.16;;;6.06;80.50
61345;BME280;47216;42.656;23.232;2022-11-15T08:19:45;94342.94;;;6.17;80.20
61345;BME280;47216;42.656;23.232;2022-11-15T08:22:12;94342.50;;;6.20;80.15
61345;BME280;47216;42.656;23.232;2022-11-15T08:24:39;94335.28;;;6.29;79.58
61345;BME280;47216;42.656;23.232;2022-11-15T08:27:06;94330.44;;;6.39;79.95
61345;BME280;47216;42.656;23.232;2022-11-15T08:29:40;94334.03;;;6.38;79.61
61345;BME280;47216;42.656;23.232;2022-11-15T08:32:09;94330.91;;;6.29;79.39
61345;BME280;47216;42.656;23.232;2022-11-15T08:34:37;94324.47;;;6.39;79.29
61345;BME280;47216;42.656;23.232;2022-11-15T08:37:04;94328.19;;;6.49;79.61
61345;BME280;47216;42.656;23.232;2022-11-15T08:39:31;94320.34;;;6.56;79.48
61345;BME280;47216;42.656;23.232;2022-11-15T08:41:58;94319.09;;;6.65;78.65
61345;BME280;47216;42.656;23.232;2022-11-15T08:44:25;94317.91;;;6.68;78.92
61345;BME280;47216;42.656;23.232;2022-11-15T08:46:52;94322.28;;;6.67;78.71
61345;BME280;47216;42.656;23.232;2022-11-15T08:49:20;94319.44;;;6.76;78.94
61345;BME280;47216;42.656;23.232;2022-11-15T08:51:47;94319.00;;;6.79;78.71
61345;BME280;47216;42.656;23.232;2022-11-15T08:54:13;94313.41;;;6.82;77.52
61345;BME280;47216;42.656;23.232;2022-11-15T08:56:40;94314.69;;;6.72;78.41
61345;BME280;47216;42.656;23.232;2022-11-15T08:59:07;94311.28;;;6.72;78.44
61345;BME280;47216;42.656;23.232;2022-11-15T09:01:34;94304.63;;;6.83;78.29
61345;BME280;47216;42.656;23.232;2022-11-15T09:04:01;94306.50;;;6.94;77.74
61345;BME280;47216;42.656;23.232;2022-11-15T09:06:30;94299.31;;;6.96;77.00
61345;BME280;47216;42.656;23.232;2022-11-15T09:08:57;94290.63;;;6.84;76.92
61345;BME280;47216;42.656;23.232;2022-11-15T09:11:24;94293.75;;;6.92;77.15
61345;BME280;47216;42.656;23.232;2022-11-15T09:13:51;94292.53;;;6.95;77.00
61345;BME280;47216;42.656;23.232;2022-11-15T09:16:18;94287.78;;;6.92;76.70
61345;BME280;47216;42.656;23.232;2022-11-15T09:18:45;94290.97;;;6.94;77.39
61345;BME280;47216;42.656;23.232;2022-11-15T09:21:12;94286.13;;;6.98;77.49
61345;BME280;47216;42.656;23.232;2022-11-15T09:23:40;94287.09;;;7.03;77.34
61345;BME280;47216;42.656;23.232;2022-11-15T09:26:07;94285.72;;;7.01;77.17
61345;BME280;47216;42.656;23.232;2022-11-15T09:28:35;94277.72;;;7.02;77.13
61345;BME280;47216;42.656;23.232;2022-11-15T09:31:04;94270.50;;;7.04;77.04
61345;BME280;47216;42.656;23.232;2022-11-15T09:33:32;94268.94;;;7.03;77.29
61345;BME280;47216;42.656;23.232;2022-11-15T09:36:03;94255.69;;;7.11;77.24
61345;BME280;47216;42.656;23.232;2022-11-15T09:38:30;94266.81;;;7.19;77.90
61345;BME280;47216;42.656;23.232;2022-11-15T09:41:17;94255.63;;;7.18;77.50
61345;BME280;47216;42.656;23.232;2022-11-15T09:43:58;94250.59;;;7.23;76.75
61345;BME280;47216;42.656;23.232;2022-11-15T09:46:38;94263.19;;;7.20;77.21
61345;BME280;47216;42.656;23.232;2022-11-15T09:49:13;94249.63;;;7.18;76.33
61345;BME280;47216;42.656;23.232;2022-11-15T09:51:42;94256.91;;;7.09;76.46
61345;BME280;47216;42.656;23.232;2022-11-15T09:54:21;94254.09;;;7.10;77.19
61345;BME280;47216;42.656;23.232;2022-11-15T09:56:51;94243.81;;;7.22;77.40
61345;BME280;47216;42.656;23.232;2022-11-15T09:59:40;94233.56;;;7.27;77.18
61345;BME280;47216;42.656;23.232;2022-11-15T10:02:20;94229.34;;;7.33;76.86
61345;BME280;47216;42.656;23.232;2022-11-15T10:04:51;94229.34;;;7.33;76.83
61345;BME280;47216;42.656;23.232;2022-11-15T10:07:23;94228.22;;;7.41;77.31
61345;BME280;47216;42.656;23.232;2022-11-15T10:09:54;94219.44;;;7.42;76.22
61345;BME280;47216;42.656;23.232;2022-11-15T10:12:24;94222.41;;;7.45;76.15
61345;BME280;47216;42.656;23.232;2022-11-15T10:14:58;94224.13;;;7.51;76.55
61345;BME280;47216;42.656;23.232;2022-11-15T10:17:40;94220.78;;;7.63;76.22
61345;BME280;47216;42.656;23.232;2022-11-15T10:20:18;94217.53;;;7.67;76.20
61345;BME280;47216;42.656;23.232;2022-11-15T10:22:47;94207.50;;;7.71;76.55
61345;BME280;47216;42.656;23.232;2022-11-15T10:25:20;94212.25;;;7.74;75.57
61345;BME280;47216;42.656;23.232;2022-11-15T10:27:55;94199.31;;;7.86;75.15
61345;BME280;47216;42.656;23.232;2022-11-15T10:30:23;94192.34;;;7.98;74.88
61345;BME280;47216;42.656;23.232;2022-11-15T10:32:50;94188.06;;;8.04;75.68
61345;BME280;47216;42.656;23.232;2022-11-15T10:35:20;94181.09;;;8.04;75.36
61345;BME280;47216;42.656;23.232;2022-11-15T10:37:47;94177.47;;;8.17;74.91
61345;BME280;47216;42.656;23.232;2022-11-15T10:40:17;94166.19;;;8.23;75.50
61345;BME280;47216;42.656;23.232;2022-11-15T10:42:45;94168.03;;;8.34;74.15
61345;BME280;47216;42.656;23.232;2022-11-15T10:45:25;94169.03;;;8.33;74.38
61345;BME280;47216;42.656;23.232;2022-11-15T10:47:52;94157.66;;;8.46;73.74
61345;BME280;47216;42.656;23.232;2022-11-15T10:50:28;94157.09;;;8.56;73.70
61345;BME280;47216;42.656;23.232;2022-11-15T10:52:55;94155.25;;;8.68;73.33
61345;BME280;47216;42.656;23.232;2022-11-15T10:55:25;94151.53;;;8.76;71.96
61345;BME280;47216;42.656;23.232;2022-11-15T10:57:55;94142.50;;;8.78;72.46
61345;BME280;47216;42.656;23.232;2022-11-15T11:00:32;94139.53;;;8.87;71.62
61345;BME280;47216;42.656;23.232;2022-11-15T11:03:02;94139.19;;;8.95;71.47
61345;BME280;47216;42.656;23.232;2022-11-15T11:05:33;94137.03;;;9.03;71.09
61345;BME280;47216;42.656;23.232;2022-11-15T11:08:01;94136.66;;;9.12;71.50
61345;BME280;47216;42.656;23.232;2022-11-15T11:10:29;94134.69;;;9.19;70.78
61345;BME280;47216;42.656;23.232;2022-11-15T11:13:13;94130.00;;;9.33;70.50
61345;BME280;47216;42.656;23.232;2022-11-15T11:15:44;94123.25;;;9.32;69.71
61345;BME280;47216;42.656;23.232;2022-11-15T11:18:18;94119.75;;;9.26;69.82
61345;BME280;47216;42.656;23.232;2022-11-15T11:20:50;94112.44;;;9.40;69.66
61345;BME280;47216;42.656;23.232;2022-11-15T11:23:35;94108.00;;;9.52;69.49
61345;BME280;47216;42.656;23.232;2022-11-15T11:26:15;94101.53;;;9.72;69.09
61345;BME280;47216;42.656;23.232;2022-11-15T11:28:53;94095.22;;;9.67;68.07
61345;BME280;47216;42.656;23.232;2022-11-15T11:31:32;94089.00;;;9.68;68.12
61345;BME280;47216;42.656;23.232;2022-11-15T11:34:09;94088.59;;;9.77;68.59
61345;BME280;47216;42.656;23.232;2022-11-15T11:36:43;94085.13;;;9.88;67.90
61345;BME280;47216;42.656;23.232;2022-11-15T11:39:21;94080.97;;;9.87;68.27
61345;BME280;47216;42.656;23.232;2022-11-15T11:42:01;94076.53;;;9.87;68.45
61345;BME280;47216;42.656;23.232;2022-11-15T11:44:40;94068.56;;;9.94;67.83
61345;BME280;47216;42.656;23.232;2022-11-15T11:47:17;94063.28;;;10.06;68.38
61345;BME280;47216;42.656;23.232;2022-11-15T11:49:50;94057.34;;;10.10;68.22
61345;BME280;47216;42.656;23.232;2022-11-15T11:52:22;94052.69;;;10.13;67.81
61345;BME280;47216;42.656;23.232;2022-11-15T11:55:00;94052.75;;;10.18;67.18
61345;BME280;47216;42.656;23.232;2022-11-15T11:57:34;94037.53;;;10.09;67.26
61345;BME280;47216;42.656;23.232;2022-11-15T12:00:14;94046.09;;;10.27;67.38
61345;BME280;47216;42.656;23.232;2022-11-15T12:02:47;94035.56;;;10.17;67.04
61345;BME280;47216;42.656;23.232;2022-11-15T12:05:18;94027.88;;;10.27;67.45
61345;BME280;47216;42.656;23.232;2022-11-15T12:07:50;94030.16;;;10.40;67.06
61345;BME280;47216;42.656;23.232;2022-11-15T12:10:22;94018.94;;;10.40;67.49
61345;BME280;47216;42.656;23.232;2022-11-15T12:12:55;94016.88;;;10.42;67.04
61345;BME280;47216;42.656;23.232;2022-11-15T12:15:27;94024.47;;;10.43;67.08
61345;BME280;47216;42.656;23.232;2022-11-15T12:18:00;94014.03;;;10.43;67.34
61345;BME280;47216;42.656;23.232;2022-11-15T12:20:33;94013.06;;;10.49;67.57
61345;BME280;47216;42.656;23.232;2022-11-15T12:23:06;94012.28;;;10.49;67.34
61345;BME280;47216;42.656;23.232;2022-11-15T12:25:46;94010.03;;;10.58;67.39
61345;BME280;47216;42.656;23.232;2022-11-15T12:28:19;94006.41;;;10.59;67.25
61345;BME280;47216;42.656;23.232;2022-11-15T12:30:51;93996.81;;;10.64;67.02
61345;BME280;47216;42.656;23.232;2022-11-15T12:33:45;94001.88;;;10.76;66.77
61345;BME280;47216;42.656;23.232;2022-11-15T12:36:32;93992.44;;;10.70;66.90
61345;BME280;47216;42.656;23.232;2022-11-15T12:39:02;93994.63;;;10.78;66.38
61345;BME280;47216;42.656;23.232;2022-11-15T12:41:30;93989.16;;;10.80;66.13
61345;BME280;47216;42.656;23.232;2022-11-15T12:43:58;93991.63;;;10.91;66.16
61345;BME280;47216;42.656;23.232;2022-11-15T12:49:48;93984.91;;;10.96;65.25
61345;BME280;47216;42.656;23.232;2022-11-15T12:52:16;93975.47;;;10.94;65.38
61345;BME280;47216;42.656;23.232;2022-11-15T12:55:08;93972.88;;;10.94;65.07
61345;BME280;47216;42.656;23.232;2022-11-15T12:57:49;93977.81;;;10.91;64.99
61345;BME280;47216;42.656;23.232;2022-11-15T13:00:43;93974.94;;;10.92;65.01
61345;BME280;47216;42.656;23.232;2022-11-15T13:03:26;93976.25;;;10.95;64.95
61345;BME280;47216;42.656;23.232;2022-11-15T13:06:33;93966.88;;;10.94;64.48
61345;BME280;47216;42.656;23.232;2022-11-15T13:08:57;93973.44;;;11.02;64.47
61345;BME280;47216;42.656;23.232;2022-11-15T13:11:51;93965.69;;;11.07;64.65
61345;BME280;47216;42.656;23.232;2022-11-15T13:14:44;93960.41;;;11.02;64.21
61345;BME280;47216;42.656;23.232;2022-11-15T13:17:32;93956.47;;;10.99;64.17
61345;BME280;47216;42.656;23.232;2022-11-15T13:20:17;93954.19;;;11.03;64.35
61345;BME280;47216;42.656;23.232;2022-11-15T13:22:47;93950.50;;;11.04;64.17